createdAt,value
2023-06-07T00:02:08.011Z,45.71
2023-06-07T00:04:36.766Z,45.71
2023-06-07T00:07:04.122Z,45.82
2023-06-07T00:09:31.445Z,45.79
2023-06-07T00:11:58.453Z,45.82
2023-06-07T00:14:25.700Z,45.68
2023-06-07T00:16:54.378Z,45.88
2023-06-07T00:19:26.459Z,45.83
2023-06-07T00:21:53.661Z,46.03
2023-06-07T00:24:21.175Z,45.96
2023-06-07T00:26:48.140Z,46.09
2023-06-07T00:29:15.579Z,46.16
2023-06-07T00:31:42.544Z,45.99
2023-06-07T00:34:09.941Z,46.23
2023-06-07T00:36:38.249Z,46.16
2023-06-07T00:39:05.309Z,46.22
2023-06-07T00:41:32.310Z,45.96
2023-06-07T00:43:59.797Z,46.23
2023-06-07T00:46:28.726Z,46.18
2023-06-07T00:48:57.097Z,46.27
2023-06-07T00:51:24.241Z,46.46
2023-06-07T00:53:52.761Z,46.19
2023-06-07T00:56:20.521Z,46.47
2023-06-07T00:58:48.123Z,46.53
2023-06-07T01:01:19.143Z,46.55
2023-06-07T01:03:46.281Z,46.80
2023-06-07T01:06:14.993Z,46.38
2023-06-07T01:08:42.864Z,46.94
2023-06-07T01:11:11.656Z,46.63
2023-06-07T01:13:40.031Z,46.71
2023-06-07T01:16:09.480Z,46.66
2023-06-07T01:18:39.032Z,46.53
2023-06-07T01:21:06.515Z,46.40
2023-06-07T01:23:33.993Z,46.46
2023-06-07T01:26:01.811Z,46.58
2023-06-07T01:28:32.188Z,46.42
2023-06-07T01:31:00.868Z,46.81
2023-06-07T01:33:33.517Z,46.79
2023-06-07T01:36:02.757Z,46.81
2023-06-07T01:38:31.393Z,46.44
2023-06-07T01:40:59.107Z,46.67
2023-06-07T01:43:27.205Z,46.95
2023-06-07T01:45:54.481Z,46.60
2023-06-07T01:48:21.969Z,46.69
2023-06-07T01:50:49.023Z,46.66
2023-06-07T01:53:16.419Z,46.85
2023-06-07T01:55:43.601Z,46.77
2023-06-07T01:58:21.319Z,46.84
2023-06-07T02:00:57.492Z,46.67
2023-06-07T02:03:30.237Z,46.91
2023-06-07T02:06:00.852Z,46.72
2023-06-07T02:08:30.870Z,46.77
2023-06-07T02:10:58.807Z,46.98
2023-06-07T02:13:27.974Z,46.81
2023-06-07T02:15:55.122Z,46.86
2023-06-07T02:18:22.142Z,46.90
2023-06-07T02:20:53.357Z,47.00
2023-06-07T02:23:20.763Z,47.08
2023-06-07T02:25:47.711Z,47.11
2023-06-07T02:28:17.424Z,46.80
2023-06-07T02:30:45.493Z,47.16
2023-06-07T02:33:15.083Z,47.11
2023-06-07T02:35:45.015Z,47.08
2023-06-07T02:38:11.867Z,47.05
2023-06-07T02:40:39.032Z,47.06
2023-06-07T02:43:05.918Z,47.14
2023-06-07T02:45:32.833Z,47.11
2023-06-07T02:47:59.798Z,47.32
2023-06-07T02:50:27.719Z,47.00
2023-06-07T02:52:56.583Z,47.08
2023-06-07T02:55:23.544Z,47.17
2023-06-07T02:57:50.425Z,47.09
2023-06-07T03:00:20.195Z,47.10
2023-06-07T03:02:52.898Z,46.98
2023-06-07T03:05:20.013Z,47.00
2023-06-07T03:07:52.282Z,47.15
2023-06-07T03:10:20.183Z,47.08
2023-06-07T03:12:47.549Z,46.96
2023-06-07T03:15:14.356Z,47.01
2023-06-07T03:17:44.565Z,46.97
2023-06-07T03:20:12.896Z,47.01
2023-06-07T03:22:41.925Z,47.19
2023-06-07T03:25:12.374Z,46.83
2023-06-07T03:27:39.562Z,46.97
2023-06-07T03:30:20.766Z,46.90
2023-06-07T03:32:48.976Z,46.99
2023-06-07T03:35:16.827Z,46.85
2023-06-07T03:37:44.173Z,46.68
2023-06-07T03:40:11.778Z,46.79
2023-06-07T03:42:38.845Z,46.65
2023-06-07T03:45:07.062Z,46.81
2023-06-07T03:47:34.789Z,46.86
2023-06-07T03:50:02.612Z,46.64
2023-06-07T03:52:33.846Z,46.71
2023-06-07T03:55:00.987Z,46.65
2023-06-07T03:57:29.481Z,46.43
2023-06-07T03:59:57.708Z,46.60
2023-06-07T04:02:25.043Z,46.49
2023-06-07T04:04:53.976Z,46.64
2023-06-07T04:07:21.524Z,46.45
2023-06-07T04:09:49.695Z,46.21
2023-06-07T04:12:18.649Z,46.40
2023-06-07T04:14:48.071Z,46.48
2023-06-07T04:17:15.008Z,46.41
2023-06-07T04:19:50.880Z,46.28
2023-06-07T04:22:31.785Z,46.25
2023-06-07T04:24:59.156Z,46.43
2023-06-07T04:27:31.026Z,46.05
2023-06-07T04:30:04.106Z,46.21
2023-06-07T04:32:34.811Z,46.13
2023-06-07T04:35:03.940Z,46.28
2023-06-07T04:37:32.507Z,46.14
2023-06-07T04:39:59.951Z,46.30
2023-06-07T04:42:28.659Z,46.17
2023-06-07T04:45:01.678Z,45.87
2023-06-07T04:47:31.230Z,45.87
2023-06-07T04:49:58.186Z,45.78
2023-06-07T04:52:28.304Z,45.78
2023-06-07T04:55:01.215Z,45.66
2023-06-07T04:57:31.237Z,45.76
2023-06-07T04:59:59.717Z,45.70
2023-06-07T05:02:40.429Z,45.59
2023-06-07T05:05:07.798Z,45.55
2023-06-07T05:07:38.156Z,45.55
2023-06-07T05:10:07.964Z,45.47
2023-06-07T05:12:35.399Z,45.50
2023-06-07T05:15:02.591Z,45.38
2023-06-07T05:17:30.867Z,45.19
2023-06-07T05:19:57.782Z,45.17
2023-06-07T05:22:24.904Z,45.19
2023-06-07T05:24:52.554Z,45.10
2023-06-07T05:27:19.474Z,45.15
2023-06-07T05:29:46.438Z,45.17
2023-06-07T05:32:13.982Z,45.15
2023-06-07T05:34:40.899Z,45.13
2023-06-07T05:37:08.223Z,45.06
2023-06-07T05:39:35.378Z,45.00
2023-06-07T05:42:02.136Z,45.00
2023-06-07T05:44:29.222Z,45.12
2023-06-07T05:46:56.585Z,44.97
2023-06-07T05:49:23.559Z,44.92
2023-06-07T05:51:50.677Z,44.79
2023-06-07T05:54:17.601Z,44.90
2023-06-07T05:56:44.466Z,44.54
2023-06-07T05:59:11.456Z,44.61
2023-06-07T06:01:38.458Z,44.75
2023-06-07T06:04:05.300Z,44.55
2023-06-07T06:06:32.109Z,44.65
2023-06-07T06:09:00.824Z,44.47
2023-06-07T06:11:27.884Z,44.57
2023-06-07T06:13:54.920Z,44.42
2023-06-07T06:16:22.014Z,44.36
2023-06-07T06:18:49.052Z,44.42
2023-06-07T06:21:16.121Z,44.35
2023-06-07T06:23:43.096Z,44.43
2023-06-07T06:26:09.974Z,44.16
2023-06-07T06:28:36.830Z,44.06
2023-06-07T06:31:05.192Z,44.14
2023-06-07T06:33:32.241Z,44.22
2023-06-07T06:36:00.742Z,44.08
2023-06-07T06:38:27.929Z,44.07
2023-06-07T06:40:55.067Z,44.13
2023-06-07T06:43:22.461Z,43.95
2023-06-07T06:45:54.642Z,44.00
2023-06-07T06:48:21.540Z,43.81
2023-06-07T06:50:50.516Z,43.87
2023-06-07T06:53:17.378Z,43.65
2023-06-07T06:55:44.275Z,43.85
2023-06-07T06:58:11.187Z,43.67
2023-06-07T07:00:40.787Z,43.73
2023-06-07T07:03:08.233Z,43.53
2023-06-07T07:05:35.184Z,43.38
2023-06-07T07:08:03.868Z,43.37
2023-06-07T07:10:30.726Z,43.49
2023-06-07T07:12:57.558Z,43.26
2023-06-07T07:15:32.636Z,43.27
2023-06-07T07:17:59.650Z,42.99
2023-06-07T07:20:26.669Z,43.10
2023-06-07T07:22:53.828Z,43.03
2023-06-07T07:25:20.848Z,42.92
2023-06-07T07:27:47.748Z,43.01
2023-06-07T07:30:15.142Z,42.91
2023-06-07T07:32:42.022Z,42.87
2023-06-07T07:35:09.073Z,42.81
2023-06-07T07:37:36.418Z,42.45
2023-06-07T07:40:05.993Z,42.27
2023-06-07T07:42:32.966Z,42.02
2023-06-07T07:44:59.868Z,42.01
2023-06-07T07:47:26.928Z,41.96
2023-06-07T07:49:53.769Z,41.87
2023-06-07T07:52:22.477Z,41.92
2023-06-07T07:54:49.642Z,41.36
2023-06-07T07:57:16.768Z,41.48
2023-06-07T07:59:44.624Z,41.54
2023-06-07T08:02:11.756Z,41.50
2023-06-07T08:04:38.711Z,41.37
2023-06-07T08:07:05.830Z,41.39
2023-06-07T08:09:32.713Z,41.24
2023-06-07T08:11:59.474Z,41.50
2023-06-07T08:14:26.383Z,41.37
2023-06-07T08:16:53.231Z,41.55
2023-06-07T08:19:20.299Z,41.21
2023-06-07T08:21:48.686Z,41.20
2023-06-07T08:24:15.830Z,41.00
2023-06-07T08:26:46.118Z,40.84
2023-06-07T08:29:13.038Z,40.73
2023-06-07T08:31:44.968Z,40.42
2023-06-07T08:34:11.930Z,39.98
2023-06-07T08:36:39.567Z,40.12
2023-06-07T08:39:06.624Z,40.27
2023-06-07T08:41:33.515Z,40.29
2023-06-07T08:44:00.427Z,40.75
2023-06-07T08:46:31.986Z,40.74
2023-06-07T08:48:59.704Z,40.61
2023-06-07T08:51:27.262Z,40.83
2023-06-07T08:53:59.310Z,40.77
2023-06-07T08:56:26.502Z,40.80
2023-06-07T08:58:57.095Z,40.55
2023-06-07T09:01:24.998Z,40.33
2023-06-07T09:03:53.186Z,40.14
2023-06-07T09:06:21.220Z,40.04
2023-06-07T09:08:48.628Z,39.78
2023-06-07T09:11:16.402Z,39.44
2023-06-07T09:13:45.042Z,39.57
2023-06-07T09:16:14.540Z,39.29
2023-06-07T09:18:43.053Z,39.40
2023-06-07T09:21:21.456Z,39.73
2023-06-07T09:23:48.588Z,39.74
2023-06-07T09:26:16.428Z,39.64
2023-06-07T09:28:43.713Z,39.30
2023-06-07T09:31:10.695Z,39.29
2023-06-07T09:33:37.633Z,39.60
2023-06-07T09:36:09.408Z,39.28
2023-06-07T09:38:36.655Z,39.53
2023-06-07T09:41:05.330Z,39.67
2023-06-07T09:43:48.595Z,39.60
2023-06-07T09:46:16.311Z,39.48
2023-06-07T09:48:47.159Z,39.36
2023-06-07T09:51:14.169Z,39.46
2023-06-07T09:54:02.443Z,39.53
2023-06-07T09:56:29.481Z,39.52
2023-06-07T09:59:10.017Z,39.37
2023-06-07T10:01:39.377Z,39.33
2023-06-07T10:04:07.387Z,39.20
2023-06-07T10:06:39.842Z,38.94
2023-06-07T10:09:07.114Z,38.59
2023-06-07T10:11:34.480Z,38.24
2023-06-07T10:14:21.862Z,38.15
2023-06-07T10:16:52.852Z,37.79
2023-06-07T10:19:31.991Z,37.84
2023-06-07T10:21:59.501Z,37.75
2023-06-07T10:24:31.326Z,37.38
2023-06-07T10:27:06.363Z,37.42
2023-06-07T10:29:43.258Z,37.05
2023-06-07T10:32:12.116Z,37.08
2023-06-07T10:34:40.055Z,37.11
2023-06-07T10:37:08.643Z,37.06
2023-06-07T10:39:36.546Z,37.22
2023-06-07T10:42:03.693Z,37.18
2023-06-07T10:44:31.359Z,37.02
2023-06-07T10:47:17.166Z,37.16
2023-06-07T10:49:44.622Z,36.96
2023-06-07T10:52:15.880Z,36.86
2023-06-07T10:54:43.545Z,37.00
2023-06-07T10:57:10.917Z,37.15
2023-06-07T10:59:41.324Z,37.11
2023-06-07T11:02:24.972Z,36.92
2023-06-07T11:04:53.749Z,36.76
2023-06-07T11:07:22.254Z,36.65
2023-06-07T11:10:09.423Z,36.08
2023-06-07T11:12:36.963Z,36.17
2023-06-07T11:15:19.886Z,36.08
2023-06-07T11:17:54.640Z,36.31
2023-06-07T11:20:37.136Z,36.14
2023-06-07T11:23:23.748Z,35.55
2023-06-07T11:25:53.181Z,35.56
2023-06-07T11:28:23.627Z,35.62
2023-06-07T11:30:51.855Z,35.93
2023-06-07T11:33:19.608Z,35.83
2023-06-07T11:35:47.065Z,35.77
2023-06-07T11:38:13.934Z,35.84
2023-06-07T11:40:40.940Z,35.35
2023-06-07T11:43:09.889Z,34.96
2023-06-07T11:45:37.278Z,34.81
2023-06-07T11:48:04.345Z,34.41
2023-06-07T11:50:31.741Z,34.21
2023-06-07T11:52:58.574Z,34.43
2023-06-07T11:55:25.776Z,34.60
2023-06-07T11:57:55.347Z,34.91
2023-06-07T12:00:22.834Z,34.55
2023-06-07T12:02:54.270Z,34.24
2023-06-07T12:05:31.287Z,33.72
2023-06-07T12:08:00.981Z,33.68
2023-06-07T12:10:28.692Z,33.95
2023-06-07T12:13:07.470Z,33.66
2023-06-07T12:15:35.616Z,33.55
2023-06-07T12:18:03.892Z,33.84
2023-06-07T12:20:30.935Z,33.62
2023-06-07T12:23:07.022Z,33.18
2023-06-07T12:25:35.981Z,33.95
2023-06-07T12:28:07.496Z,33.96
2023-06-07T12:30:35.210Z,34.22
2023-06-07T12:33:05.188Z,34.37
2023-06-07T12:35:46.336Z,34.68
2023-06-07T12:38:14.052Z,34.08
2023-06-07T12:40:41.127Z,34.03
2023-06-07T12:43:08.005Z,33.85
2023-06-07T12:45:35.892Z,33.62
2023-06-07T12:48:02.726Z,33.34
2023-06-07T12:50:30.682Z,33.75
2023-06-07T12:52:57.900Z,33.58
2023-06-07T12:55:25.003Z,32.87
2023-06-07T12:57:51.938Z,32.02
2023-06-07T13:00:18.949Z,32.28
2023-06-07T13:02:46.091Z,31.60
2023-06-07T13:05:13.226Z,31.05
2023-06-07T13:07:41.137Z,30.99
2023-06-07T13:10:12.013Z,30.65
2023-06-07T13:12:40.040Z,30.42
2023-06-07T13:15:07.321Z,30.17
2023-06-07T13:17:34.642Z,30.28
2023-06-07T13:20:01.615Z,29.97
2023-06-07T13:22:32.593Z,29.62
2023-06-07T13:24:59.674Z,29.26
2023-06-07T13:27:28.427Z,29.71
2023-06-07T13:29:56.704Z,27.10
2023-06-07T13:32:23.786Z,30.30
2023-06-07T13:34:50.711Z,30.27
2023-06-07T13:37:17.694Z,29.84
2023-06-07T13:39:44.494Z,30.01
2023-06-07T13:42:11.409Z,30.52
2023-06-07T13:44:39.973Z,30.33
2023-06-07T13:47:07.338Z,29.95
2023-06-07T13:49:36.045Z,29.73
2023-06-07T13:52:03.532Z,29.40
2023-06-07T13:54:33.158Z,29.29
2023-06-07T13:57:00.753Z,28.66
2023-06-07T13:59:29.193Z,28.54
2023-06-07T14:01:59.733Z,28.00
2023-06-07T14:04:26.989Z,28.21
2023-06-07T14:06:54.178Z,27.91
2023-06-07T14:09:21.006Z,28.15
2023-06-07T14:11:47.851Z,27.85
2023-06-07T14:14:14.673Z,28.09
2023-06-07T14:16:41.501Z,26.55
2023-06-07T14:19:08.410Z,26.95
2023-06-07T14:21:35.824Z,26.64
2023-06-07T14:24:02.904Z,24.66
2023-06-07T14:26:29.764Z,26.57
2023-06-07T14:28:56.574Z,26.23
2023-06-07T14:31:23.779Z,26.98
2023-06-07T14:33:53.655Z,27.13
2023-06-07T14:36:21.280Z,27.66
2023-06-07T14:38:48.141Z,27.34
2023-06-07T14:41:14.965Z,27.41
2023-06-07T14:43:42.030Z,27.32
2023-06-07T14:46:09.117Z,27.58
2023-06-07T14:48:36.316Z,27.58
2023-06-07T14:51:03.183Z,27.57
2023-06-07T14:53:29.976Z,27.66
2023-06-07T14:55:56.896Z,27.66
2023-06-07T14:58:23.625Z,28.16
2023-06-07T15:00:50.924Z,28.57
2023-06-07T15:03:17.892Z,28.56
2023-06-07T15:05:44.947Z,28.79
2023-06-07T15:08:11.707Z,29.04
2023-06-07T15:10:38.567Z,29.32
2023-06-07T15:13:05.481Z,29.32
2023-06-07T15:15:32.546Z,29.45
2023-06-07T15:17:59.553Z,29.50
2023-06-07T15:20:27.769Z,29.42
2023-06-07T15:22:54.605Z,29.55
2023-06-07T15:25:21.474Z,29.83
2023-06-07T15:27:48.327Z,29.68
2023-06-07T15:30:15.646Z,29.61
2023-06-07T15:32:42.426Z,29.82
2023-06-07T15:35:12.537Z,29.91
2023-06-07T15:37:39.900Z,29.99
2023-06-07T15:40:07.471Z,30.05
2023-06-07T15:42:34.474Z,30.06
2023-06-07T15:45:01.257Z,30.08
2023-06-07T15:47:28.998Z,30.26
2023-06-07T15:49:56.226Z,30.34
2023-06-07T15:52:23.281Z,30.42
2023-06-07T15:54:50.324Z,30.58
2023-06-07T15:57:17.173Z,30.71
2023-06-07T15:59:43.930Z,30.90
2023-06-07T16:02:10.783Z,31.24
2023-06-07T16:04:37.685Z,31.25
2023-06-07T16:07:05.318Z,31.38
2023-06-07T16:09:32.272Z,31.80
2023-06-07T16:11:59.130Z,32.16
2023-06-07T16:14:26.123Z,32.12
2023-06-07T16:16:53.498Z,32.35
2023-06-07T16:19:20.358Z,32.63
2023-06-07T16:21:47.179Z,32.92
2023-06-07T16:24:15.274Z,33.57
2023-06-07T16:26:42.314Z,34.25
2023-06-07T16:29:09.119Z,34.97
2023-06-07T16:31:36.181Z,35.45
2023-06-07T16:34:03.099Z,35.86
2023-06-07T16:36:30.074Z,36.13
2023-06-07T16:38:56.867Z,36.17
2023-06-07T16:41:29.655Z,36.57
2023-06-07T16:43:56.391Z,36.68
2023-06-07T16:46:23.684Z,36.86
2023-06-07T16:48:50.530Z,37.30
2023-06-07T16:51:17.371Z,37.43
2023-06-07T16:53:44.302Z,42.33
2023-06-07T16:56:11.176Z,40.75
2023-06-07T16:58:38.118Z,39.19
2023-06-07T17:01:05.106Z,39.64
2023-06-07T17:03:32.101Z,40.25
2023-06-07T17:05:58.996Z,41.23
2023-06-07T17:08:26.150Z,40.69
2023-06-07T17:10:52.972Z,40.73
2023-06-07T17:13:20.235Z,41.28
2023-06-07T17:15:47.224Z,41.32
2023-06-07T17:18:14.291Z,41.47
2023-06-07T17:20:41.681Z,41.13
2023-06-07T17:23:08.558Z,42.02
2023-06-07T17:25:35.881Z,42.22
2023-06-07T17:28:03.040Z,42.19
2023-06-07T17:30:30.490Z,42.71
2023-06-07T17:32:57.457Z,43.04
2023-06-07T17:35:24.533Z,42.74
2023-06-07T17:37:53.541Z,42.51
2023-06-07T17:40:20.448Z,42.37
2023-06-07T17:42:47.224Z,42.23
2023-06-07T17:45:14.110Z,42.87
2023-06-07T17:47:54.184Z,43.21
2023-06-07T17:50:32.764Z,43.37
2023-06-07T17:53:00.190Z,43.80
2023-06-07T17:55:27.195Z,44.15
2023-06-07T17:57:54.083Z,44.33
2023-06-07T18:00:21.258Z,44.92
2023-06-07T18:02:48.070Z,44.82
2023-06-07T18:05:15.034Z,44.72
2023-06-07T18:07:42.411Z,45.21
2023-06-07T18:10:09.591Z,45.06
2023-06-07T18:12:36.489Z,44.95
2023-06-07T18:15:06.306Z,45.41
2023-06-07T18:17:33.099Z,45.27
2023-06-07T18:19:59.887Z,45.36
2023-06-07T18:22:26.767Z,45.28
2023-06-07T18:24:53.617Z,45.19
2023-06-07T18:27:20.552Z,45.61
2023-06-07T18:29:47.382Z,45.28
2023-06-07T18:32:14.232Z,45.59
2023-06-07T18:34:41.112Z,45.42
2023-06-07T18:37:08.025Z,45.43
2023-06-07T18:39:34.997Z,45.73
2023-06-07T18:42:01.869Z,45.72
2023-06-07T18:44:30.246Z,45.71
2023-06-07T18:46:57.263Z,45.89
2023-06-07T18:49:24.116Z,45.71
2023-06-07T18:51:51.013Z,45.33
2023-06-07T18:54:17.796Z,45.83
2023-06-07T18:56:44.960Z,46.05
2023-06-07T18:59:11.935Z,45.82
2023-06-07T19:01:50.667Z,46.05
2023-06-07T19:04:19.418Z,45.89
2023-06-07T19:06:49.578Z,46.21
2023-06-07T19:09:18.603Z,46.39
2023-06-07T19:11:46.198Z,46.25
2023-06-07T19:14:13.231Z,46.04
2023-06-07T19:16:40.596Z,46.42
2023-06-07T19:19:07.447Z,46.43
2023-06-07T19:21:34.246Z,46.30
2023-06-07T19:24:04.190Z,46.29
2023-06-07T19:26:31.356Z,46.03
2023-06-07T19:29:02.508Z,45.84
2023-06-07T19:31:29.478Z,46.06
2023-06-07T19:33:56.452Z,46.23
2023-06-07T19:36:23.237Z,46.73
2023-06-07T19:38:54.164Z,46.62
2023-06-07T19:41:22.066Z,47.23
2023-06-07T19:43:48.871Z,46.73
2023-06-07T19:46:15.788Z,47.17
2023-06-07T19:48:42.644Z,47.08
2023-06-07T19:51:10.169Z,47.05
2023-06-07T19:53:37.119Z,46.94
2023-06-07T19:56:04.743Z,47.04
2023-06-07T19:58:31.802Z,47.16
2023-06-07T20:00:58.732Z,47.44
2023-06-07T20:03:25.566Z,47.39
2023-06-07T20:05:52.403Z,47.23
2023-06-07T20:08:19.199Z,47.42
2023-06-07T20:10:46.023Z,47.33
2023-06-07T20:13:17.880Z,47.10
2023-06-07T20:15:45.522Z,47.31
2023-06-07T20:18:12.402Z,47.32
2023-06-07T20:20:40.833Z,47.03
2023-06-07T20:23:07.914Z,47.46
2023-06-07T20:25:34.968Z,47.47
2023-06-07T20:28:01.956Z,47.37
2023-06-07T20:30:28.842Z,47.42
2023-06-07T20:32:55.730Z,47.23
2023-06-07T20:35:22.842Z,47.14
2023-06-07T20:37:50.478Z,46.91
2023-06-07T20:40:17.398Z,47.23
2023-06-07T20:42:45.205Z,47.26
2023-06-07T20:45:13.652Z,47.04
2023-06-07T20:47:40.897Z,47.35
2023-06-07T20:50:09.585Z,47.38
2023-06-07T20:52:36.563Z,47.31
2023-06-07T20:55:03.936Z,47.07
2023-06-07T20:57:34.221Z,47.48
2023-06-07T21:00:05.394Z,47.25
2023-06-07T21:02:36.560Z,47.34
2023-06-07T21:05:03.629Z,47.39
2023-06-07T21:07:30.881Z,47.37
2023-06-07T21:09:57.720Z,47.42
2023-06-07T21:12:24.640Z,47.33
2023-06-07T21:14:53.523Z,47.26
2023-06-07T21:17:20.306Z,47.60
2023-06-07T21:19:48.562Z,47.77
2023-06-07T21:22:15.286Z,47.65
2023-06-07T21:24:42.193Z,47.50
2023-06-07T21:27:11.110Z,47.60
2023-06-07T21:29:38.112Z,47.64
2023-06-07T21:32:05.333Z,47.77
2023-06-07T21:34:32.079Z,47.81
2023-06-07T21:36:58.886Z,47.46
2023-06-07T21:39:25.739Z,47.86
2023-06-07T21:41:52.818Z,47.73
2023-06-07T21:44:19.781Z,47.95
2023-06-07T21:46:46.766Z,48.03
2023-06-07T21:49:13.773Z,47.91
2023-06-07T21:51:40.856Z,48.12
2023-06-07T21:54:09.155Z,47.82
2023-06-07T21:56:36.150Z,48.19
2023-06-07T21:59:02.912Z,48.01
2023-06-07T22:01:29.845Z,48.10
2023-06-07T22:03:56.853Z,47.96
2023-06-07T22:06:23.657Z,48.31
2023-06-07T22:08:50.869Z,48.06
2023-06-07T22:11:18.054Z,48.43
2023-06-07T22:13:45.922Z,48.14
2023-06-07T22:16:13.859Z,48.17
2023-06-07T22:18:41.943Z,48.31
2023-06-07T22:21:08.880Z,48.36
2023-06-07T22:23:35.844Z,48.29
2023-06-07T22:26:02.971Z,48.34
2023-06-07T22:28:31.010Z,48.35
2023-06-07T22:31:01.037Z,48.36
2023-06-07T22:33:27.907Z,48.48
2023-06-07T22:35:58.680Z,48.66
2023-06-07T22:38:25.895Z,48.65
2023-06-07T22:40:53.402Z,48.61
2023-06-07T22:43:20.274Z,48.81
2023-06-07T22:45:47.400Z,48.78
2023-06-07T22:48:16.948Z,48.97
2023-06-07T22:50:43.829Z,49.00
2023-06-07T22:53:13.531Z,48.92
2023-06-07T22:55:41.813Z,48.98
2023-06-07T22:58:08.830Z,49.22
2023-06-07T23:00:36.354Z,49.10
2023-06-07T23:03:05.027Z,49.15
2023-06-07T23:05:32.039Z,48.90
2023-06-07T23:07:58.897Z,49.25
2023-06-07T23:10:37.237Z,49.06
2023-06-07T23:13:18.446Z,49.39
2023-06-07T23:15:46.395Z,49.33
2023-06-07T23:18:19.543Z,49.28
2023-06-07T23:20:46.890Z,49.31
2023-06-07T23:23:14.009Z,49.51
2023-06-07T23:25:41.267Z,49.48
2023-06-07T23:28:08.263Z,49.51
2023-06-07T23:30:35.683Z,49.36
2023-06-07T23:33:03.242Z,49.49
2023-06-07T23:35:30.106Z,49.62
2023-06-07T23:37:57.034Z,49.49
2023-06-07T23:40:23.890Z,49.37
2023-06-07T23:42:53.619Z,49.71
2023-06-07T23:45:25.638Z,49.62
2023-06-07T23:47:52.574Z,49.77
2023-06-07T23:50:19.417Z,49.82
2023-06-07T23:52:46.355Z,49.96
2023-06-07T23:55:14.506Z,49.84
2023-06-07T23:57:41.845Z,49.88
